Time;durP1;ratioP1;P1;durP2;ratioP2;P2;SDS_P1;SDS_P2;PMS_P1;PMS_P2;Temp;Humidity;BMP_temperature;BMP_pressure;BME280_temperature;BME280_humidity;BME280_pressure;Samples;Min_cycle;Max_cycle;Signal;HPM_P1;HPM_P2
2023/03/13 00:01:25;;;;;;;12.60;3.40;;;;;;;6.76;100.00;95785.81;5033841;28;20033;-88
2023/03/13 00:03:51;;;;;;;17.10;3.20;;;;;;;6.81;100.00;95782.78;5030704;28;20037;-89
2023/03/13 00:06:33;;;;;;;12.80;2.70;;;;;;;6.74;100.00;95786.91;5051100;28;20033;-89
2023/03/13 00:08:59;;;;;;;14.10;4.17;;;;;;;6.72;100.00;95773.19;5035780;28;21597;-92
2023/03/13 00:11:26;;;;;;;12.70;2.93;;;;;;;6.60;100.00;95770.75;5039631;28;20033;-91
2023/03/13 00:13:56;;;;;;;12.53;3.53;;;;;;;6.62;100.00;95768.03;5032487;28;20060;-91
2023/03/13 00:16:23;;;;;;;13.53;4.43;;;;;;;6.66;100.00;95768.53;5035205;28;20032;-92
2023/03/13 00:18:51;;;;;;;13.33;3.73;;;;;;;6.68;100.00;95769.25;5040613;28;20044;-92
2023/03/13 00:21:42;;;;;;;14.63;4.10;;;;;;;6.63;100.00;95768.84;5036167;28;20091;-91
2023/03/13 00:24:10;;;;;;;19.13;4.07;;;;;;;6.59;100.00;95763.91;5039821;28;20195;-92
2023/03/13 00:26:36;;;;;;;16.83;3.60;;;;;;;6.53;100.00;95774.13;5035048;28;20045;-92
2023/03/13 00:29:33;;;;;;;12.93;3.80;;;;;;;6.46;100.00;95783.50;5043712;28;20041;-91
2023/03/13 00:32:00;;;;;;;14.93;3.67;;;;;;;6.41;100.00;95776.09;5034209;28;20028;-92
2023/03/13 00:35:04;;;;;;;15.57;4.07;;;;;;;6.33;100.00;95783.81;5034741;28;20128;-92
2023/03/13 00:37:31;;;;;;;16.63;4.10;;;;;;;6.27;100.00;95790.47;5048290;28;20101;-92
2023/03/13 00:39:56;;;;;;;14.20;2.90;;;;;;;6.25;100.00;95787.16;5035562;28;20041;-92
2023/03/13 00:42:22;;;;;;;16.50;3.90;;;;;;;6.31;100.00;95780.56;5038002;28;20921;-92
2023/03/13 00:44:55;;;;;;;16.50;3.70;;;;;;;6.42;100.00;95771.69;5035472;28;20040;-92
2023/03/13 00:47:22;;;;;;;10.57;3.00;;;;;;;6.48;100.00;95768.53;5051487;28;20063;-91
2023/03/13 00:50:05;;;;;;;16.23;3.00;;;;;;;6.57;100.00;95767.63;5052226;28;20041;-92
2023/03/13 00:52:30;;;;;;;14.60;3.07;;;;;;;6.61;100.00;95758.56;5041873;28;20038;-92
2023/03/13 00:54:56;;;;;;;12.73;3.33;;;;;;;6.67;100.00;95759.72;5051587;28;20063;-91
2023/03/13 00:57:22;;;;;;;15.10;3.93;;;;;;;6.64;100.00;95763.47;5059895;28;20036;-92
2023/03/13 00:59:47;;;;;;;13.93;3.33;;;;;;;6.69;100.00;95750.78;5052875;28;20094;-90
2023/03/13 01:02:13;;;;;;;12.17;2.83;;;;;;;6.69;100.00;95750.78;5036291;28;20024;-91
2023/03/13 01:04:44;;;;;;;11.43;3.03;;;;;;;6.73;100.00;95754.75;5032862;28;20087;-92
2023/03/13 01:07:10;;;;;;;10.57;2.87;;;;;;;6.72;100.00;95747.88;5033195;28;20033;-92
2023/03/13 01:09:35;;;;;;;18.83;3.90;;;;;;;6.64;100.00;95744.34;5034405;28;20037;-91
2023/03/13 01:12:01;;;;;;;14.27;4.17;;;;;;;6.72;100.00;95752.28;5034954;28;20033;-91
2023/03/13 01:14:35;;;;;;;14.07;4.43;;;;;;;6.66;100.00;95738.00;5041728;28;20037;-91
2023/03/13 01:17:01;;;;;;;14.33;4.57;;;;;;;6.68;100.00;95735.28;5032692;28;20077;-92
2023/03/13 01:19:27;;;;;;;19.37;5.30;;;;;;;6.65;100.00;95740.78;5034528;28;20049;-92
2023/03/13 01:21:53;;;;;;;16.23;3.53;;;;;;;6.55;100.00;95735.63;5034871;28;20037;-92
2023/03/13 01:24:19;;;;;;;14.50;3.97;;;;;;;6.54;100.00;95723.53;5059017;28;20406;-92
2023/03/13 01:26:49;;;;;;;14.30;5.07;;;;;;;6.46;100.00;95720.81;5028887;28;20033;-92
2023/03/13 01:29:14;;;;;;;12.87;3.20;;;;;;;6.42;100.00;95722.06;5034836;28;20035;-92
2023/03/13 01:31:40;;;;;;;18.93;4.30;;;;;;;6.41;100.00;95717.84;5034395;28;20037;-91
2023/03/13 01:34:07;;;;;;;16.13;3.93;;;;;;;6.43;100.00;95715.88;5051144;28;20521;-92
2023/03/13 01:36:35;;;;;;;13.57;3.83;;;;;;;6.41;100.00;95712.59;5034863;28;20033;-92
2023/03/13 01:39:01;;;;;;;15.33;3.90;;;;;;;6.42;100.00;95703.78;5036970;28;20037;-91
2023/03/13 01:41:29;;;;;;;14.00;3.63;;;;;;;6.40;100.00;95695.28;5034765;28;20029;-92
2023/03/13 01:44:02;;;;;;;14.73;3.93;;;;;;;6.37;100.00;95692.00;5054847;28;20079;-92
2023/03/13 01:46:32;;;;;;;12.17;3.93;;;;;;;6.37;100.00;95689.41;5040074;28;20054;-92
2023/03/13 01:49:19;;;;;;;16.27;3.47;;;;;;;6.40;100.00;95692.66;5055671;28;20037;-92
2023/03/13 01:52:08;;;;;;;13.77;3.47;;;;;;;6.36;100.00;95690.34;5022590;28;20128;-92
2023/03/13 01:55:03;;;;;;;15.87;3.77;;;;;;;6.40;100.00;95696.09;5036045;28;20036;-91
2023/03/13 01:57:34;;;;;;;12.70;3.00;;;;;;;6.35;100.00;95686.09;5056609;28;20029;-92
2023/03/13 02:00:02;;;;;;;13.47;2.63;;;;;;;6.35;100.00;95686.09;5039849;28;20036;-92
2023/03/13 02:02:48;;;;;;;15.00;4.07;;;;;;;6.40;100.00;95674.38;5064683;28;20032;-91
2023/03/13 02:05:18;;;;;;;10.07;2.90;;;;;;;6.40;100.00;95674.38;5063316;28;20041;-92
2023/03/13 02:07:55;;;;;;;15.23;3.00;;;;;;;6.41;100.00;95676.88;5056201;28;20036;-92
2023/03/13 02:10:25;;;;;;;10.50;3.20;;;;;;;6.44;100.00;95665.28;5040155;28;20083;-92
2023/03/13 02:12:52;;;;;;;10.87;2.47;;;;;;;6.33;100.00;95664.50;5055570;28;20493;-92
2023/03/13 02:15:30;;;;;;;10.40;2.10;;;;;;;6.30;100.00;95667.41;5041524;28;20029;-89
2023/03/13 02:17:56;;;;;;;14.63;2.83;;;;;;;6.29;100.00;95662.34;5044971;28;20032;-89
2023/03/13 02:20:24;;;;;;;9.80;2.07;;;;;;;6.21;100.00;95660.47;5036862;28;20052;-89
2023/03/13 02:23:12;;;;;;;9.40;2.50;;;;;;;6.13;100.00;95653.38;5036287;28;20060;-89
2023/03/13 02:25:52;;;;;;;12.60;2.30;;;;;;;6.10;100.00;95653.69;5041507;28;20490;-89
2023/03/13 02:28:35;;;;;;;10.50;2.43;;;;;;;5.99;100.00;95655.66;5039090;28;20064;-89
2023/03/13 02:31:05;;;;;;;8.33;2.03;;;;;;;5.97;100.00;95647.13;5035128;28;20047;-89
2023/03/13 02:34:00;;;;;;;10.30;2.23;;;;;;;5.88;100.00;95647.00;5047354;28;20156;-89
2023/03/13 02:36:29;;;;;;;9.83;2.43;;;;;;;5.81;100.00;95632.91;5033406;28;20033;-89
2023/03/13 02:39:01;;;;;;;12.63;2.17;;;;;;;5.85;100.00;95631.66;5049907;28;20041;-89
2023/03/13 02:41:29;;;;;;;8.15;2.25;;;;;;;5.83;100.00;95624.91;5055262;28;20037;-89
2023/03/13 02:43:57;;;;;;;7.80;2.80;;;;;;;5.81;100.00;95619.88;5035224;28;20087;-92
2023/03/13 02:46:23;;;;;;;15.43;3.57;;;;;;;5.77;100.00;95626.34;5039359;28;20039;-92
2023/03/13 02:48:54;;;;;;;12.63;3.10;;;;;;;5.72;100.00;95612.06;5033572;28;20044;-92
2023/03/13 02:51:38;;;;;;;13.40;3.53;;;;;;;5.71;100.00;95611.25;5054713;28;20036;-92
2023/03/13 02:54:09;;;;;;;8.97;2.27;;;;;;;5.67;100.00;95609.91;5036223;28;20123;-92
2023/03/13 02:56:41;;;;;;;12.80;2.77;;;;;;;5.82;100.00;95608.44;5053610;28;20047;-92
2023/03/13 02:59:09;;;;;;;10.37;2.17;;;;;;;5.82;100.00;95598.00;5041198;28;20037;-92
2023/03/13 03:01:54;;;;;;;11.30;2.27;;;;;;;5.95;100.00;95602.94;5034787;28;20112;-92
2023/03/13 03:04:21;;;;;;;10.27;2.57;;;;;;;5.98;100.00;95605.25;5037601;28;20106;-92
2023/03/13 03:06:55;;;;;;;10.70;2.10;;;;;;;5.96;100.00;95603.75;5059879;28;20017;-92
2023/03/13 03:09:24;;;;;;;10.87;2.23;;;;;;;6.01;100.00;95607.56;5051317;28;20032;-92
2023/03/13 03:11:54;;;;;;;9.40;2.35;;;;;;;6.06;100.00;95599.28;5041819;28;20083;-92
2023/03/13 03:14:20;;;;;;;9.03;2.47;;;;;;;6.14;100.00;95588.94;5037375;28;20483;-92
2023/03/13 03:16:59;;;;;;;11.20;2.80;;;;;;;6.23;100.00;95584.59;5039594;28;20394;-91
2023/03/13 03:19:26;;;;;;;14.90;3.60;;;;;;;6.21;100.00;95584.78;5054127;28;20117;-92
2023/03/13 03:21:51;;;;;;;8.60;2.17;;;;;;;6.20;100.00;95580.50;5034906;28;20408;-91
2023/03/13 03:24:18;;;;;;;9.60;1.90;;;;;;;6.25;100.00;95586.09;5045507;28;20032;-92
2023/03/13 03:26:44;;;;;;;10.27;2.20;;;;;;;6.26;100.00;95576.47;5038039;28;20033;-92
2023/03/13 03:29:17;;;;;;;10.75;2.28;;;;;;;6.30;100.00;95573.41;5037755;28;20029;-92
2023/03/13 03:31:46;;;;;;;10.20;2.70;;;;;;;6.28;100.00;95562.31;5048801;28;20116;-92
2023/03/13 03:34:12;;;;;;;9.83;1.80;;;;;;;6.28;100.00;95562.31;5040505;28;20094;-92
2023/03/13 03:36:38;;;;;;;10.97;2.27;;;;;;;6.31;100.00;95564.63;5037429;28;20029;-92
2023/03/13 03:39:05;;;;;;;12.50;2.47;;;;;;;6.33;100.00;95557.44;5039202;28;20067;-92
2023/03/13 03:41:30;;;;;;;5.83;1.90;;;;;;;6.34;100.00;95550.47;5037691;28;20123;-92
2023/03/13 03:43:57;;;;;;;8.53;2.70;;;;;;;6.33;100.00;95549.63;5045811;28;20500;-92
2023/03/13 03:46:28;;;;;;;5.20;1.53;;;;;;;6.34;100.00;95543.44;5046990;28;20029;-92
2023/03/13 03:48:55;;;;;;;8.83;2.20;;;;;;;6.34;100.00;95540.84;5037687;28;21193;-92
2023/03/13 03:51:21;;;;;;;7.07;1.67;;;;;;;6.37;100.00;95535.31;5048129;28;20045;-92
2023/03/13 03:53:47;;;;;;;7.90;1.67;;;;;;;6.43;100.00;95533.06;5036088;28;20723;-91
2023/03/13 03:56:13;;;;;;;7.23;1.83;;;;;;;6.48;100.00;95536.88;5053084;28;20124;-91
2023/03/13 03:58:45;;;;;;;9.73;2.43;;;;;;;6.53;100.00;95533.78;5051027;28;20040;-92
2023/03/13 04:01:17;;;;;;;10.73;2.07;;;;;;;6.54;100.00;95535.44;5037760;28;20619;-91
2023/03/13 04:03:42;;;;;;;11.00;2.87;;;;;;;6.60;100.00;95534.81;5032619;28;20041;-91
2023/03/13 04:06:13;;;;;;;9.97;1.80;;;;;;;6.65;100.00;95529.97;5036406;28;20033;-92
2023/03/13 04:08:40;;;;;;;7.73;1.60;;;;;;;6.70;100.00;95526.88;5037627;28;20037;-91
2023/03/13 04:11:07;;;;;;;8.67;2.10;;;;;;;6.73;100.00;95527.41;5052396;28;20033;-91
2023/03/13 04:13:37;;;;;;;9.13;1.93;;;;;;;6.85;100.00;95522.75;5043488;28;20438;-91
2023/03/13 04:16:07;;;;;;;7.47;1.80;;;;;;;6.90;100.00;95512.66;5040204;28;20033;-91
2023/03/13 04:18:36;;;;;;;8.53;2.10;;;;;;;6.94;100.00;95516.63;5046185;28;20583;-91
2023/03/13 04:21:04;;;;;;;26.33;9.47;;;;;;;6.95;100.00;95520.84;5053027;28;20110;-91
2023/03/13 04:23:39;;;;;;;9.67;2.70;;;;;;;6.86;100.00;95521.78;5031038;28;20030;-91
2023/03/13 04:26:07;;;;;;;18.83;6.90;;;;;;;6.82;100.00;95523.88;5031414;28;20032;-91
2023/03/13 04:28:33;;;;;;;13.07;4.30;;;;;;;6.76;100.00;95524.47;5036718;28;20029;-91
2023/03/13 04:31:01;;;;;;;13.77;5.50;;;;;;;6.78;100.00;95527.78;5033479;28;20550;-91
2023/03/13 04:33:56;;;;;;;13.30;3.57;;;;;;;6.92;100.00;95536.03;5042631;28;20033;-92
2023/03/13 04:36:51;;;;;;;10.57;2.20;;;;;;;6.91;100.00;95523.91;5043936;28;20049;-91
2023/03/13 04:39:38;;;;;;;;;;;;;;;6.93;100.00;95527.22;5046380;28;20056;-91
2023/03/13 04:42:10;;;;;;;6.17;1.40;;;;;;;6.91;100.00;95518.69;5063562;28;19984;-91
2023/03/13 04:44:55;;;;;;;7.93;2.37;;;;;;;6.92;100.00;95528.19;5059959;28;20039;-91
2023/03/13 04:47:46;;;;;;;6.43;2.07;;;;;;;6.90;100.00;95519.69;5031046;28;20076;-91
2023/03/13 04:54:22;;;;;;;12.47;3.00;;;;;;;6.93;100.00;95508.91;5050059;28;20032;-91
2023/03/13 04:57:19;;;;;;;5.57;2.13;;;;;;;6.88;100.00;95505.97;5035838;28;20386;-91
2023/03/13 05:00:06;;;;;;;7.70;1.90;;;;;;;6.80;100.00;95493.63;5035936;28;20037;-90
2023/03/13 05:03:00;;;;;;;6.23;1.97;;;;;;;6.72;100.00;95491.81;5051466;28;20043;-90
2023/03/13 05:05:51;;;;;;;10.93;2.77;;;;;;;6.71;100.00;95503.25;5040980;28;20487;-91
2023/03/13 05:08:16;;;;;;;7.80;2.50;;;;;;;6.75;100.00;95504.56;5049585;28;20037;-91
2023/03/13 05:11:11;;;;;;;8.47;4.03;;;;;;;6.76;100.00;95505.38;5028837;28;20037;-91
2023/03/13 05:13:46;;;;;;;7.63;3.20;;;;;;;6.78;100.00;95499.03;5049905;28;20032;-91
2023/03/13 05:16:27;;;;;;;5.60;2.13;;;;;;;6.81;100.00;95501.34;5039927;28;20424;-91
2023/03/13 05:19:11;;;;;;;9.77;3.20;;;;;;;6.81;100.00;95496.13;5054366;28;20041;-91
2023/03/13 05:21:38;;;;;;;12.43;3.13;;;;;;;6.85;100.00;95502.66;5056032;28;20063;-90
2023/03/13 05:24:49;;;;;;;10.97;3.67;;;;;;;6.91;100.00;95500.41;5050142;28;20175;-90
2023/03/13 05:27:48;;;;;;;8.23;2.30;;;;;;;7.02;100.00;95492.31;5045269;28;20032;-90
2023/03/13 05:30:43;;;;;;;9.97;2.73;;;;;;;7.06;100.00;95491.84;5039114;28;20041;-90
2023/03/13 05:33:27;;;;;;;8.53;3.07;;;;;;;7.06;100.00;95481.38;5050525;28;20028;-90
2023/03/13 05:36:04;;;;;;;6.90;1.73;;;;;;;7.16;100.00;95483.88;5034222;28;20060;-90
2023/03/13 05:38:52;;;;;;;6.33;2.80;;;;;;;7.18;100.00;95491.56;5031722;28;20033;-90
2023/03/13 05:41:41;;;;;;;8.60;2.57;;;;;;;7.19;100.00;95475.72;5034627;28;20032;-90
2023/03/13 05:44:27;;;;;;;8.80;2.47;;;;;;;7.12;100.00;95464.25;5042430;28;20039;-87
2023/03/13 05:47:17;;;;;;;14.70;2.90;;;;;;;7.13;100.00;95462.44;5049253;28;20136;-87
2023/03/13 05:50:09;;;;;;;11.27;3.40;;;;;;;7.20;100.00;95461.66;5042856;28;20036;-87
2023/03/13 05:52:53;;;;;;;10.63;2.90;;;;;;;7.22;100.00;95451.88;5035419;28;20090;-86
2023/03/13 05:55:39;;;;;;;7.13;2.23;;;;;;;7.28;100.00;95464.31;5052065;28;20037;-87
2023/03/13 05:58:21;;;;;;;10.13;2.77;;;;;;;7.26;100.00;95468.88;5046968;28;20029;-87
2023/03/13 06:01:09;;;;;;;8.17;2.27;;;;;;;7.35;100.00;95467.13;5055620;28;20056;-87
2023/03/13 06:03:47;;;;;;;11.30;2.87;;;;;;;7.38;100.00;95458.13;5046261;28;20033;-86
2023/03/13 06:06:34;;;;;;;9.23;2.50;;;;;;;7.40;100.00;95459.59;5058989;28;20723;-87
2023/03/13 06:09:00;;;;;;;8.00;2.50;;;;;;;7.47;100.00;95454.56;5039814;28;20828;-87
2023/03/13 06:11:31;;;;;;;12.17;3.40;;;;;;;7.54;100.00;95456.41;5035940;28;20100;-87
2023/03/13 06:13:58;;;;;;;3.77;1.20;;;;;;;7.59;100.00;95463.75;5031600;28;20029;-86
2023/03/13 06:16:30;;;;;;;5.40;1.38;;;;;;;7.68;100.00;95446.25;5044462;28;20138;-87
2023/03/13 06:19:10;;;;;;;7.77;1.57;;;;;;;7.73;100.00;95452.66;5040385;28;20034;-86
2023/03/13 06:21:42;;;;;;;6.47;1.73;;;;;;;7.72;100.00;95442.38;5034808;28;20031;-86
2023/03/13 06:24:08;;;;;;;10.40;2.40;;;;;;;7.75;100.00;95442.88;5050757;28;20032;-87
2023/03/13 06:26:37;;;;;;;12.07;1.67;;;;;;;7.86;100.00;95439.13;5050624;28;20032;-87
2023/03/13 06:29:02;;;;;;;5.63;1.97;;;;;;;7.86;100.00;95446.16;5037350;28;20025;-86
2023/03/13 06:31:38;;;;;;;5.20;1.50;;;;;;;7.88;100.00;95446.78;5051231;28;20520;-86
2023/03/13 06:34:04;;;;;;;5.03;1.63;;;;;;;7.92;100.00;95448.94;5039697;28;20035;-87
2023/03/13 06:36:30;;;;;;;5.60;1.30;;;;;;;7.91;100.00;95449.09;5043663;28;20037;-87
2023/03/13 06:38:55;;;;;;;3.87;1.27;;;;;;;8.01;100.00;95444.50;5050888;28;20041;-87
2023/03/13 06:41:27;;;;;;;5.97;1.30;;;;;;;8.12;100.00;95443.41;5017543;28;20041;-87
2023/03/13 06:43:52;;;;;;;5.70;1.70;;;;;;;8.16;100.00;95447.31;5050496;28;20112;-86
2023/03/13 06:46:21;;;;;;;1.80;0.83;;;;;;;8.30;100.00;95433.56;5038798;28;20448;-86
2023/03/13 06:48:57;;;;;;;5.57;1.20;;;;;;;8.46;100.00;95432.78;5033049;28;20037;-91
2023/03/13 06:51:25;;;;;;;2.83;1.37;;;;;;;8.60;100.00;95423.41;5035855;28;20029;-91
2023/03/13 06:54:10;;;;;;;4.20;0.90;;;;;;;8.81;100.00;95422.88;5033486;28;20033;-91
2023/03/13 06:56:36;;;;;;;3.53;0.80;;;;;;;9.19;100.00;95422.09;5032411;28;20094;-91
2023/03/13 06:59:02;;;;;;;3.90;1.07;;;;;;;9.21;100.00;95425.34;5032576;28;20037;-92
2023/03/13 07:01:27;;;;;;;4.70;1.17;;;;;;;9.05;100.00;95414.91;5038938;28;20037;-92
2023/03/13 07:03:59;;;;;;;4.90;1.10;;;;;;;9.09;100.00;95418.84;5030783;28;20029;-91
2023/03/13 07:06:26;;;;;;;4.27;1.87;;;;;;;9.29;100.00;95418.41;5036766;28;20033;-91
2023/03/13 07:08:52;;;;;;;5.03;1.83;;;;;;;9.32;100.00;95420.69;5035355;28;20071;-91
2023/03/13 07:11:26;;;;;;;4.43;1.40;;;;;;;9.40;100.00;95426.75;5036209;28;20041;-91
2023/03/13 07:13:55;;;;;;;2.60;1.07;;;;;;;9.47;100.00;95418.19;5036510;28;20037;-91
2023/03/13 07:16:30;;;;;;;3.00;0.80;;;;;;;9.52;100.00;95418.47;5046313;28;20033;-91
2023/03/13 07:18:56;;;;;;;1.93;0.90;;;;;;;9.51;100.00;95424.72;5035202;28;20128;-92
2023/03/13 07:21:22;;;;;;;2.80;1.00;;;;;;;9.49;100.00;95421.44;5034877;28;20112;-91
2023/03/13 07:23:50;;;;;;;3.67;0.87;;;;;;;9.56;100.00;95430.28;5031517;28;20029;-91
2023/03/13 07:26:36;;;;;;;2.73;1.00;;;;;;;9.56;100.00;95438.97;5035145;28;20046;-92
2023/03/13 07:29:02;;;;;;;3.40;0.90;;;;;;;9.56;100.00;95433.72;5050379;28;20029;-91
2023/03/13 07:31:32;;;;;;;4.87;0.87;;;;;;;9.68;100.00;95449.88;5034415;28;20047;-92
2023/03/13 07:33:59;;;;;;;6.53;1.93;;;;;;;9.61;100.00;95441.88;5030673;28;20025;-92
2023/03/13 07:36:28;;;;;;;4.17;1.10;;;;;;;9.65;100.00;95448.41;5028803;28;20104;-91
2023/03/13 07:38:54;;;;;;;4.47;1.00;;;;;;;9.69;100.00;95451.50;5035819;28;20032;-92
2023/03/13 07:41:22;;;;;;;2.97;1.50;;;;;;;9.74;100.00;95449.19;5050600;28;20131;-92
2023/03/13 07:43:58;;;;;;;0.83;0.50;;;;;;;9.77;100.00;95456.72;5039598;28;20087;-93
2023/03/13 07:46:23;;;;;;;3.90;0.80;;;;;;;9.89;100.00;95446.63;5054065;28;20029;-92
2023/03/13 07:48:50;;;;;;;7.33;2.53;;;;;;;9.89;100.00;95451.88;5051516;28;20020;-92
2023/03/13 07:51:24;;;;;;;4.10;1.43;;;;;;;9.98;100.00;95445.59;5041332;28;20041;-92
2023/03/13 07:53:57;;;;;;;2.20;0.83;;;;;;;10.08;100.00;95443.56;5050459;28;20044;-92
2023/03/13 07:56:24;;;;;;;3.28;1.15;;;;;;;10.06;100.00;95442.94;5033756;28;20399;-93
2023/03/13 07:58:50;;;;;;;3.43;1.53;;;;;;;10.08;100.00;95446.19;5034153;28;20063;-93
2023/03/13 08:01:26;;;;;;;6.00;1.90;;;;;;;10.17;100.00;95438.25;5033748;28;20064;-92
2023/03/13 08:03:59;;;;;;;6.27;2.37;;;;;;;10.19;100.00;95441.50;5034436;28;20036;-91
2023/03/13 08:06:36;;;;;;;;;;;;;;;10.06;100.00;95429.78;5037054;28;22836;-91
2023/03/13 08:09:30;;;;;;;2.27;0.80;;;;;;;10.12;100.00;95429.06;5033966;28;19982;-91
2023/03/13 08:12:01;;;;;;;1.90;0.50;;;;;;;10.14;100.00;95436.78;5045201;28;20187;-91
2023/03/13 08:14:27;;;;;;;1.97;0.70;;;;;;;10.12;100.00;95434.31;5040572;28;20912;-91
2023/03/13 08:16:53;;;;;;;1.00;0.67;;;;;;;10.16;100.00;95440.06;5050186;28;20099;-91
2023/03/13 08:19:19;;;;;;;4.17;1.30;;;;;;;10.05;100.00;95440.47;5034032;28;20025;-90
2023/03/13 08:21:45;;;;;;;2.00;0.80;;;;;;;10.00;100.00;95441.00;5049806;28;20039;-90
2023/03/13 08:24:11;;;;;;;3.80;0.93;;;;;;;10.04;100.00;95442.28;5045981;28;20037;-90
2023/03/13 08:26:41;;;;;;;2.97;0.73;;;;;;;10.05;100.00;95427.31;5049803;28;20051;-90
2023/03/13 08:29:10;;;;;;;3.17;1.37;;;;;;;10.14;100.00;95426.28;5049956;28;20037;-90
2023/03/13 08:31:40;;;;;;;2.60;1.00;;;;;;;10.08;100.00;95409.41;5035357;28;20120;-91
2023/03/13 08:34:06;;;;;;;1.57;0.60;;;;;;;10.15;100.00;95412.94;5035372;28;20486;-91
2023/03/13 08:36:36;;;;;;;1.30;0.60;;;;;;;10.24;100.00;95410.28;5031222;28;20044;-90
2023/03/13 08:39:19;;;;;;;2.37;0.67;;;;;;;10.31;100.00;95405.97;5032864;28;20033;-90
2023/03/13 08:41:52;;;;;;;1.35;0.60;;;;;;;10.34;100.00;95408.25;5034097;28;20068;-91
2023/03/13 08:44:19;;;;;;;3.63;0.88;;;;;;;10.42;100.00;95408.16;5059855;28;20131;-90
2023/03/13 08:46:45;;;;;;;2.30;0.63;;;;;;;10.40;100.00;95402.28;5030248;28;20033;-90
2023/03/13 08:49:12;;;;;;;2.53;0.60;;;;;;;10.46;100.00;95408.63;5031305;28;20455;-90
2023/03/13 08:51:41;;;;;;;2.10;0.77;;;;;;;10.53;100.00;95391.97;5053430;28;20033;-90
2023/03/13 08:54:10;;;;;;;2.47;0.83;;;;;;;10.62;100.00;95388.25;5036645;28;20398;-90
2023/03/13 08:56:39;;;;;;;2.13;0.73;;;;;;;10.76;100.00;95364.75;5051952;28;20060;-90
2023/03/13 08:59:05;;;;;;;2.00;1.00;;;;;;;10.87;100.00;95364.31;5053384;28;20421;-90
2023/03/13 09:01:33;;;;;;;3.07;0.90;;;;;;;11.07;100.00;95364.59;5035417;28;20513;-90
2023/03/13 09:03:59;;;;;;;3.43;1.10;;;;;;;11.32;100.00;95359.81;5035133;28;20045;-90
2023/03/13 09:06:25;;;;;;;3.43;0.80;;;;;;;11.47;100.00;95362.41;5036342;28;20032;-90
2023/03/13 09:08:58;;;;;;;2.03;0.93;;;;;;;11.91;100.00;95351.75;5037921;28;20044;-89
2023/03/13 09:11:32;;;;;;;2.13;1.20;;;;;;;12.38;100.00;95345.03;5024629;28;20079;-89
2023/03/13 09:13:58;;;;;;;2.70;0.87;;;;;;;13.56;100.00;95337.09;5040502;28;20036;-90
2023/03/13 09:16:37;;;;;;;5.13;0.90;;;;;;;13.44;100.00;95326.28;5058489;28;20033;-90
2023/03/13 09:19:03;;;;;;;1.70;0.87;;;;;;;13.47;100.00;95328.53;5029871;28;20059;-90
2023/03/13 09:21:48;;;;;;;1.30;0.70;;;;;;;14.44;100.00;95316.59;5033041;28;20064;-90
2023/03/13 09:24:19;;;;;;;1.60;0.90;;;;;;;13.54;100.00;95320.63;5035110;28;20128;-90
2023/03/13 09:26:44;;;;;;;1.27;0.70;;;;;;;13.36;100.00;95322.00;5049597;28;20029;-90
2023/03/13 09:29:10;;;;;;;1.90;1.10;;;;;;;13.02;100.00;95322.88;5035581;28;20036;-90
2023/03/13 09:31:37;;;;;;;2.10;0.80;;;;;;;12.93;100.00;95324.84;5039897;28;20075;-90
2023/03/13 09:34:03;;;;;;;2.63;0.70;;;;;;;12.98;100.00;95326.91;5050724;28;20022;-90
2023/03/13 09:36:30;;;;;;;1.73;0.90;;;;;;;12.97;100.00;95322.63;5037695;28;20069;-90
2023/03/13 09:38:58;;;;;;;2.00;0.70;;;;;;;13.04;100.00;95331.38;5034329;28;20041;-90
2023/03/13 09:41:39;;;;;;;3.30;0.90;;;;;;;13.07;100.00;95327.53;5031579;28;20040;-90
2023/03/13 09:44:57;;;;;;;1.43;0.70;;;;;;;13.27;100.00;95333.75;5035333;28;20033;-90
2023/03/13 09:47:30;;;;;;;3.93;1.53;;;;;;;13.18;100.00;95338.38;4986798;28;20064;-91
2023/03/13 09:50:08;;;;;;;1.48;0.75;;;;;;;13.21;100.00;95330.06;5033384;28;20040;-90
2023/03/13 09:52:40;;;;;;;3.13;0.60;;;;;;;13.14;100.00;95342.38;5038540;28;20116;-91
2023/03/13 09:55:14;;;;;;;0.90;0.60;;;;;;;13.12;100.00;95325.16;5056459;28;20033;-91
2023/03/13 09:58:02;;;;;;;2.17;1.00;;;;;;;13.12;100.00;95327.78;5052689;28;20704;-92
2023/03/13 10:00:37;;;;;;;1.50;0.50;;;;;;;13.39;100.00;95318.97;5023660;28;20024;-91
2023/03/13 10:03:15;;;;;;;4.10;0.80;;;;;;;13.82;100.00;95331.06;5034860;28;20037;-92
2023/03/13 10:05:52;;;;;;;2.13;0.93;;;;;;;13.76;100.00;95335.31;5036779;28;20040;-91
2023/03/13 10:08:30;;;;;;;1.57;0.77;;;;;;;13.91;100.00;95333.28;5044562;28;20032;-92
2023/03/13 10:11:22;;;;;;;3.33;1.10;;;;;;;14.10;100.00;95336.16;5031811;28;20487;-92
2023/03/13 10:14:19;;;;;;;2.77;1.10;;;;;;;14.03;100.00;95337.97;5039620;28;20064;-92
2023/03/13 10:17:10;;;;;;;2.27;1.10;;;;;;;14.06;100.00;95345.50;5041173;28;20075;-92
2023/03/13 10:19:42;;;;;;;1.80;0.70;;;;;;;13.79;100.00;95345.47;5040106;28;20095;-91
2023/03/13 10:22:31;;;;;;;4.20;0.90;;;;;;;13.62;100.00;95347.69;5039228;28;20036;-91
2023/03/13 10:25:33;;;;;;;1.83;0.90;;;;;;;13.98;100.00;95348.34;5042220;28;20028;-91
2023/03/13 10:28:01;;;;;;;1.43;0.87;;;;;;;13.88;100.00;95346.91;5031842;28;20094;-91
2023/03/13 10:30:35;;;;;;;3.23;0.90;;;;;;;13.79;100.00;95360.53;5041369;28;20063;-90
2023/03/13 10:33:06;;;;;;;1.97;0.90;;;;;;;13.72;100.00;95349.94;5048273;28;20032;-90
2023/03/13 10:35:39;;;;;;;0.90;0.60;;;;;;;13.61;100.00;95355.78;5039903;28;20102;-90
2023/03/13 10:38:18;;;;;;;1.08;0.50;;;;;;;13.81;100.00;95347.91;5033048;28;20075;-90
2023/03/13 10:40:56;;;;;;;4.93;1.07;;;;;;;14.14;100.00;95337.38;5034796;28;20103;-90
2023/03/13 10:43:27;;;;;;;4.77;0.87;;;;;;;14.39;100.00;95327.81;5034416;28;20029;-90
2023/03/13 10:45:53;;;;;;;2.13;1.30;;;;;;;14.12;100.00;95321.72;5038000;28;20032;-90
2023/03/13 10:48:22;;;;;;;2.20;0.73;;;;;;;14.61;100.00;95317.00;5034259;28;20070;-90
2023/03/13 10:51:19;;;;;;;5.22;1.52;;;;;;;14.88;100.00;95306.34;5034122;28;20033;-90
2023/03/13 10:53:44;;;;;;;2.13;0.70;;;;;;;14.71;100.00;95301.50;5039869;28;20036;-89
2023/03/13 10:56:14;;;;;;;4.07;1.55;;;;;;;14.92;100.00;95289.03;5032569;28;20034;-90
2023/03/13 10:58:52;;;;;;;4.50;2.00;;;;;;;14.86;100.00;95288.06;5035095;28;20124;-90
2023/03/13 11:01:32;;;;;;;2.55;1.23;;;;;;;15.16;100.00;95291.00;5037297;28;20064;-90
2023/03/13 11:04:00;;;;;;;2.78;1.02;;;;;;;15.29;100.00;95290.94;5036617;28;20486;-90
2023/03/13 11:06:28;;;;;;;3.15;1.02;;;;;;;15.77;100.00;95284.34;5029953;28;20059;-90
2023/03/13 11:09:14;;;;;;;4.43;1.00;;;;;;;15.60;100.00;95278.72;5044768;28;20155;-90
2023/03/13 11:11:48;;;;;;;4.03;1.20;;;;;;;15.55;100.00;95265.28;5046045;28;20505;-91
2023/03/13 11:14:19;;;;;;;2.20;0.90;;;;;;;15.40;100.00;95257.66;5045956;28;20047;-90
2023/03/13 11:16:49;;;;;;;3.42;1.00;;;;;;;15.28;100.00;95260.16;5047431;28;20044;-89
2023/03/13 11:19:29;;;;;;;3.90;1.17;;;;;;;14.82;100.00;95266.47;5056199;28;20025;-89
2023/03/13 11:22:25;;;;;;;2.08;1.13;;;;;;;15.08;100.00;95248.84;5037834;28;20591;-89
2023/03/13 11:25:22;;;;;;;2.15;1.00;;;;;;;15.00;100.00;95249.09;5046009;28;20486;-87
2023/03/13 11:28:04;;;;;;;6.63;1.85;;;;;;;15.18;100.00;95246.53;5050311;28;20035;-89
2023/03/13 11:30:33;;;;;;;3.33;1.23;;;;;;;15.20;100.00;95246.34;5032870;28;20033;-86
2023/03/13 11:33:25;;;;;;;4.60;1.13;;;;;;;15.50;100.00;95230.69;5052646;28;20037;-86
2023/03/13 11:36:27;;;;;;;2.25;1.10;;;;;;;16.53;100.00;95234.69;5027162;28;20044;-86
2023/03/13 11:39:03;;;;;;;2.70;0.90;;;;;;;17.44;100.00;95220.53;5032175;28;20616;-87
2023/03/13 11:41:55;;;;;;;2.63;1.08;;;;;;;17.61;100.00;95224.16;5025974;28;20478;-86
2023/03/13 11:44:35;;;;;;;6.90;1.95;;;;;;;16.78;100.00;95224.84;5032988;28;20025;-86
2023/03/13 11:47:16;;;;;;;2.63;1.00;;;;;;;16.70;100.00;95220.63;5033263;28;20028;-88
2023/03/13 11:49:54;;;;;;;1.42;1.00;;;;;;;16.63;100.00;95219.91;5050852;28;20045;-88
2023/03/13 11:53:01;;;;;;;3.70;1.23;;;;;;;16.79;100.00;95210.53;5037925;28;20025;-87
2023/03/13 11:55:36;;;;;;;3.50;1.17;;;;;;;16.62;100.00;95199.69;5052016;28;20127;-87
2023/03/13 11:58:16;;;;;;;3.28;1.10;;;;;;;16.80;100.00;95203.38;5030516;28;20039;-88
2023/03/13 12:01:17;;;;;;;3.88;1.08;;;;;;;18.39;100.00;95198.31;5034811;28;20040;-87
2023/03/13 12:04:03;;;;;;;13.77;2.25;;;;;;;17.39;100.00;95180.50;5032234;28;20055;-88
2023/03/13 12:06:53;;;;;;;4.05;1.27;;;;;;;18.30;100.00;95170.44;5039272;28;20040;-88